sensor_id;sensor_type;location;lat;lon;timestamp;pressure;altitude;pressure_sealevel;temperature;humidity
74329;BME280;62749;51.982;5.916;2024-01-25T00:00:23;78392.38;;;-147.22;71.75
74329;BME280;62749;51.982;5.916;2024-01-25T00:02:52;78392.38;;;-147.22;71.80
74329;BME280;62749;51.982;5.916;2024-01-25T00:05:24;78398.41;;;-147.22;71.96
74329;BME280;62749;51.982;5.916;2024-01-25T00:07:54;78404.47;;;-147.22;71.86
74329;BME280;62749;51.982;5.916;2024-01-25T00:10:23;78412.53;;;-147.22;71.63
74329;BME280;62749;51.982;5.916;2024-01-25T00:12:53;78414.56;;;-147.22;71.60
74329;BME280;62749;51.982;5.916;2024-01-25T00:15:22;78422.63;;;-147.22;71.67
74329;BME280;62749;51.982;5.916;2024-01-25T00:17:52;78424.63;;;-147.22;71.59
74329;BME280;62749;51.982;5.916;2024-01-25T00:20:24;78436.75;;;-147.22;71.66
74329;BME280;62749;51.982;5.916;2024-01-25T00:22:53;78432.72;;;-147.22;71.74
74329;BME280;62749;51.982;5.916;2024-01-25T00:25:23;78444.81;;;-147.22;71.57
74329;BME280;62749;51.982;5.916;2024-01-25T00:27:52;78444.81;;;-147.22;71.62
74329;BME280;62749;51.982;5.916;2024-01-25T00:30:22;78456.91;;;-147.22;71.77
74329;BME280;62749;51.982;5.916;2024-01-25T00:32:51;78460.94;;;-147.22;71.57
74329;BME280;62749;51.982;5.916;2024-01-25T00:35:24;78454.88;;;-147.22;71.74
74329;BME280;62749;51.982;5.916;2024-01-25T00:37:54;78456.91;;;-147.22;71.58
74329;BME280;62749;51.982;5.916;2024-01-25T00:40:25;78464.97;;;-147.22;71.61
74329;BME280;62749;51.982;5.916;2024-01-25T00:42:54;78471.03;;;-147.22;71.70
74329;BME280;62749;51.982;5.916;2024-01-25T00:45:24;78473.03;;;-147.22;71.66
74329;BME280;62749;51.982;5.916;2024-01-25T00:47:54;78473.03;;;-147.22;71.64
74329;BME280;62749;51.982;5.916;2024-01-25T00:50:27;78491.19;;;-147.22;71.91
74329;BME280;62749;51.982;5.916;2024-01-25T00:52:57;78485.13;;;-147.22;71.97
74329;BME280;62749;51.982;5.916;2024-01-25T00:55:28;78491.19;;;-147.22;71.52
74329;BME280;62749;51.982;5.916;2024-01-25T00:57:58;78487.16;;;-147.22;71.51
74329;BME280;62749;51.982;5.916;2024-01-25T01:00:28;78493.22;;;-147.22;71.79
74329;BME280;62749;51.982;5.916;2024-01-25T01:03:02;78499.25;;;-147.22;71.77
74329;BME280;62749;51.982;5.916;2024-01-25T01:05:35;78501.28;;;-147.22;71.79
74329;BME280;62749;51.982;5.916;2024-01-25T01:08:06;78515.41;;;-147.22;72.08
74329;BME280;62749;51.982;5.916;2024-01-25T01:10:36;78527.50;;;-147.22;72.37
74329;BME280;62749;51.982;5.916;2024-01-25T01:13:05;78515.41;;;-147.22;72.12
74329;BME280;62749;51.982;5.916;2024-01-25T01:15:34;78509.34;;;-147.22;71.99
74329;BME280;62749;51.982;5.916;2024-01-25T01:18:04;78521.44;;;-147.22;71.87
74329;BME280;62749;51.982;5.916;2024-01-25T01:20:36;78543.63;;;-147.22;72.00
74329;BME280;62749;51.982;5.916;2024-01-25T01:23:06;78541.63;;;-147.22;72.40
74329;BME280;62749;51.982;5.916;2024-01-25T01:25:35;78537.59;;;-147.22;72.17
74329;BME280;62749;51.982;5.916;2024-01-25T01:28:05;78547.66;;;-147.22;72.30
74329;BME280;62749;51.982;5.916;2024-01-25T01:30:34;78547.66;;;-147.22;72.19
74329;BME280;62749;51.982;5.916;2024-01-25T01:33:08;78551.69;;;-147.22;72.22
74329;BME280;62749;51.982;5.916;2024-01-25T01:35:40;78573.88;;;-147.22;72.34
74329;BME280;62749;51.982;5.916;2024-01-25T01:38:09;78573.88;;;-147.22;72.41
74329;BME280;62749;51.982;5.916;2024-01-25T01:40:39;78575.91;;;-147.22;72.52
74329;BME280;62749;51.982;5.916;2024-01-25T01:43:17;78585.97;;;-147.22;72.63
74329;BME280;62749;51.982;5.916;2024-01-25T01:45:47;78590.00;;;-147.22;72.87
74329;BME280;62749;51.982;5.916;2024-01-25T01:48:16;78600.09;;;-147.22;73.08
74329;BME280;62749;51.982;5.916;2024-01-25T01:51:09;78602.13;;;-147.22;72.97
74329;BME280;62749;51.982;5.916;2024-01-25T01:53:39;78606.16;;;-147.22;73.09
74329;BME280;62749;51.982;5.916;2024-01-25T01:56:09;78608.16;;;-147.22;73.06
74329;BME280;62749;51.982;5.916;2024-01-25T01:58:39;78608.16;;;-147.22;72.94
74329;BME280;62749;51.982;5.916;2024-01-25T02:01:08;78622.28;;;-147.22;73.17
74329;BME280;62749;51.982;5.916;2024-01-25T02:03:38;78634.38;;;-147.22;73.21
74329;BME280;62749;51.982;5.916;2024-01-25T02:06:10;78642.47;;;-147.22;73.56
74329;BME280;62749;51.982;5.916;2024-01-25T02:08:39;78650.53;;;-147.22;73.86
74329;BME280;62749;51.982;5.916;2024-01-25T02:11:11;78652.53;;;-147.22;73.89
74329;BME280;62749;51.982;5.916;2024-01-25T02:13:41;78662.63;;;-147.22;73.87
74329;BME280;62749;51.982;5.916;2024-01-25T02:16:10;78660.59;;;-147.22;74.00
74329;BME280;62749;51.982;5.916;2024-01-25T02:18:41;78666.66;;;-147.22;74.18
74329;BME280;62749;51.982;5.916;2024-01-25T02:21:13;78666.66;;;-147.22;74.40
74329;BME280;62749;51.982;5.916;2024-01-25T02:23:45;78666.66;;;-147.22;74.24
74329;BME280;62749;51.982;5.916;2024-01-25T02:26:15;78662.63;;;-147.22;74.08
74329;BME280;62749;51.982;5.916;2024-01-25T02:28:44;78664.63;;;-147.22;74.09
74329;BME280;62749;51.982;5.916;2024-01-25T02:31:14;78674.72;;;-147.22;73.91
74329;BME280;62749;51.982;5.916;2024-01-25T02:33:43;78672.72;;;-147.22;74.12
74329;BME280;62749;51.982;5.916;2024-01-25T02:36:12;78696.91;;;-147.22;74.23
74329;BME280;62749;51.982;5.916;2024-01-25T02:38:44;78717.09;;;-147.22;74.67
74329;BME280;62749;51.982;5.916;2024-01-25T02:41:14;78729.19;;;-147.22;74.82
74329;BME280;62749;51.982;5.916;2024-01-25T02:43:43;78723.13;;;-147.22;75.00
74329;BME280;62749;51.982;5.916;2024-01-25T02:46:13;78727.16;;;-147.22;75.42
74329;BME280;62749;51.982;5.916;2024-01-25T02:48:42;78731.19;;;-147.22;75.36
74329;BME280;62749;51.982;5.916;2024-01-25T02:51:12;78737.25;;;-147.22;75.61
74329;BME280;62749;51.982;5.916;2024-01-25T02:53:41;78747.34;;;-147.22;75.75
74329;BME280;62749;51.982;5.916;2024-01-25T02:56:13;78747.34;;;-147.22;75.79
74329;BME280;62749;51.982;5.916;2024-01-25T02:58:43;78747.34;;;-147.22;75.55
74329;BME280;62749;51.982;5.916;2024-01-25T03:01:12;78755.41;;;-147.22;75.75
74329;BME280;62749;51.982;5.916;2024-01-25T03:03:42;78753.38;;;-147.22;75.61
74329;BME280;62749;51.982;5.916;2024-01-25T03:06:11;78763.47;;;-147.22;75.82
74329;BME280;62749;51.982;5.916;2024-01-25T03:08:41;78767.50;;;-147.22;76.12
74329;BME280;62749;51.982;5.916;2024-01-25T03:11:13;78771.53;;;-147.22;76.15
74329;BME280;62749;51.982;5.916;2024-01-25T03:13:42;78767.50;;;-147.22;76.25
74329;BME280;62749;51.982;5.916;2024-01-25T03:16:12;78761.44;;;-147.22;76.15
74329;BME280;62749;51.982;5.916;2024-01-25T03:18:41;78759.44;;;-147.22;76.10
74329;BME280;62749;51.982;5.916;2024-01-25T03:21:11;78761.44;;;-147.22;76.44
74329;BME280;62749;51.982;5.916;2024-01-25T03:23:40;78759.44;;;-147.22;76.43
74329;BME280;62749;51.982;5.916;2024-01-25T03:26:12;78775.56;;;-147.22;76.47
74329;BME280;62749;51.982;5.916;2024-01-25T03:28:42;78775.56;;;-147.22;76.86
74329;BME280;62749;51.982;5.916;2024-01-25T03:31:11;78773.56;;;-147.22;76.77
74329;BME280;62749;51.982;5.916;2024-01-25T03:33:41;78781.63;;;-147.22;76.71
74329;BME280;62749;51.982;5.916;2024-01-25T03:36:13;78779.59;;;-147.22;76.60
74329;BME280;62749;51.982;5.916;2024-01-25T03:38:43;78787.66;;;-147.22;76.66
74329;BME280;62749;51.982;5.916;2024-01-25T03:41:15;78793.72;;;-147.22;77.02
74329;BME280;62749;51.982;5.916;2024-01-25T03:43:45;78783.63;;;-147.22;77.04
74329;BME280;62749;51.982;5.916;2024-01-25T03:46:14;78781.63;;;-147.22;77.04
74329;BME280;62749;51.982;5.916;2024-01-25T03:48:43;78789.69;;;-147.22;77.24
74329;BME280;62749;51.982;5.916;2024-01-25T03:51:13;78797.75;;;-147.22;77.35
74329;BME280;62749;51.982;5.916;2024-01-25T03:53:42;78795.75;;;-147.22;77.41
74329;BME280;62749;51.982;5.916;2024-01-25T03:56:15;78795.75;;;-147.22;77.35
74329;BME280;62749;51.982;5.916;2024-01-25T03:58:45;78783.63;;;-147.22;77.16
74329;BME280;62749;51.982;5.916;2024-01-25T04:01:14;78791.72;;;-147.22;77.07
74329;BME280;62749;51.982;5.916;2024-01-25T04:03:44;78791.72;;;-147.22;77.00
74329;BME280;62749;51.982;5.916;2024-01-25T04:06:13;78791.72;;;-147.22;77.13
74329;BME280;62749;51.982;5.916;2024-01-25T04:08:43;78803.81;;;-147.22;77.17
74329;BME280;62749;51.982;5.916;2024-01-25T04:11:15;78805.81;;;-147.22;77.47
74329;BME280;62749;51.982;5.916;2024-01-25T04:13:44;78809.84;;;-147.22;77.59
74329;BME280;62749;51.982;5.916;2024-01-25T04:16:14;78815.91;;;-147.22;77.67
74329;BME280;62749;51.982;5.916;2024-01-25T04:18:43;78815.91;;;-147.22;77.81
74329;BME280;62749;51.982;5.916;2024-01-25T04:21:13;78805.81;;;-147.22;77.84
74329;BME280;62749;51.982;5.916;2024-01-25T04:23:42;78803.81;;;-147.22;77.97
74329;BME280;62749;51.982;5.916;2024-01-25T04:26:14;78821.97;;;-147.22;77.92
74329;BME280;62749;51.982;5.916;2024-01-25T04:28:44;78830.03;;;-147.22;78.09
74329;BME280;62749;51.982;5.916;2024-01-25T04:31:14;78823.97;;;-147.22;78.22
74329;BME280;62749;51.982;5.916;2024-01-25T04:33:43;78828.00;;;-147.22;78.26
74329;BME280;62749;51.982;5.916;2024-01-25T04:36:13;78826.00;;;-147.22;78.13
74329;BME280;62749;51.982;5.916;2024-01-25T04:38:42;78828.00;;;-147.22;77.90
74329;BME280;62749;51.982;5.916;2024-01-25T04:41:15;78830.03;;;-147.22;78.00
74329;BME280;62749;51.982;5.916;2024-01-25T04:43:44;78836.06;;;-147.22;78.31
74329;BME280;62749;51.982;5.916;2024-01-25T04:46:14;78838.09;;;-147.22;78.25
74329;BME280;62749;51.982;5.916;2024-01-25T04:48:43;78846.16;;;-147.22;78.42
74329;BME280;62749;51.982;5.916;2024-01-25T04:51:15;78866.34;;;-147.22;78.71
74329;BME280;62749;51.982;5.916;2024-01-25T04:53:46;78866.34;;;-147.22;78.91
74329;BME280;62749;51.982;5.916;2024-01-25T04:56:18;78862.31;;;-147.22;78.78
74329;BME280;62749;51.982;5.916;2024-01-25T04:58:47;78860.28;;;-147.22;78.71
74329;BME280;62749;51.982;5.916;2024-01-25T05:01:17;78862.31;;;-147.22;78.90
74329;BME280;62749;51.982;5.916;2024-01-25T05:03:47;78860.28;;;-147.22;78.82
74329;BME280;62749;51.982;5.916;2024-01-25T05:06:16;78858.28;;;-147.22;78.73
74329;BME280;62749;51.982;5.916;2024-01-25T05:08:46;78860.28;;;-147.22;78.58
74329;BME280;62749;51.982;5.916;2024-01-25T05:11:18;78854.22;;;-147.22;78.65
74329;BME280;62749;51.982;5.916;2024-01-25T05:13:47;78864.31;;;-147.22;78.62
74329;BME280;62749;51.982;5.916;2024-01-25T05:16:17;78862.31;;;-147.22;78.77
74329;BME280;62749;51.982;5.916;2024-01-25T05:18:46;78868.34;;;-147.22;78.66
74329;BME280;62749;51.982;5.916;2024-01-25T05:21:16;78880.44;;;-147.22;78.58
74329;BME280;62749;51.982;5.916;2024-01-25T05:23:45;78884.50;;;-147.22;79.04
74329;BME280;62749;51.982;5.916;2024-01-25T05:26:17;78874.41;;;-147.22;79.08
74329;BME280;62749;51.982;5.916;2024-01-25T05:28:47;78884.50;;;-147.22;79.06
74329;BME280;62749;51.982;5.916;2024-01-25T05:31:17;78884.50;;;-147.22;78.92
74329;BME280;62749;51.982;5.916;2024-01-25T05:33:46;78876.41;;;-147.22;78.82
74329;BME280;62749;51.982;5.916;2024-01-25T05:36:16;78860.28;;;-147.22;78.66
74329;BME280;62749;51.982;5.916;2024-01-25T05:38:46;78872.38;;;-147.22;78.76
74329;BME280;62749;51.982;5.916;2024-01-25T05:41:18;78868.34;;;-147.22;78.26
74329;BME280;62749;51.982;5.916;2024-01-25T05:43:48;78874.41;;;-147.22;78.10
74329;BME280;62749;51.982;5.916;2024-01-25T05:46:17;78886.50;;;-147.22;78.46
74329;BME280;62749;51.982;5.916;2024-01-25T05:48:46;78872.38;;;-147.22;78.17
74329;BME280;62749;51.982;5.916;2024-01-25T05:51:16;78888.53;;;-147.22;78.19
74329;BME280;62749;51.982;5.916;2024-01-25T05:53:45;78896.59;;;-147.22;78.56
74329;BME280;62749;51.982;5.916;2024-01-25T05:56:15;78898.59;;;-147.22;78.58
74329;BME280;62749;51.982;5.916;2024-01-25T05:58:47;78902.63;;;-147.22;78.46
74329;BME280;62749;51.982;5.916;2024-01-25T06:01:16;78884.50;;;-147.22;78.61
74329;BME280;62749;51.982;5.916;2024-01-25T06:03:46;78888.53;;;-147.22;78.25
74329;BME280;62749;51.982;5.916;2024-01-25T06:06:15;78896.59;;;-147.22;78.29
74329;BME280;62749;51.982;5.916;2024-01-25T06:08:45;78892.56;;;-147.22;78.48
74329;BME280;62749;51.982;5.916;2024-01-25T06:11:14;78902.63;;;-147.22;78.09
74329;BME280;62749;51.982;5.916;2024-01-25T06:13:43;78888.53;;;-147.22;78.52
74329;BME280;62749;51.982;5.916;2024-01-25T06:16:15;78896.59;;;-147.22;78.36
74329;BME280;62749;51.982;5.916;2024-01-25T06:18:45;78912.72;;;-147.22;78.40
74329;BME280;62749;51.982;5.916;2024-01-25T06:21:14;78930.88;;;-147.22;78.56
74329;BME280;62749;51.982;5.916;2024-01-25T06:23:44;78953.06;;;-147.22;78.71
74329;BME280;62749;51.982;5.916;2024-01-25T06:26:13;78953.06;;;-147.22;78.91
74329;BME280;62749;51.982;5.916;2024-01-25T06:28:42;78957.09;;;-147.22;79.17
74329;BME280;62749;51.982;5.916;2024-01-25T06:31:14;78949.03;;;-147.22;79.31
74329;BME280;62749;51.982;5.916;2024-01-25T06:33:44;78938.94;;;-147.22;79.36
74329;BME280;62749;51.982;5.916;2024-01-25T06:36:17;78938.94;;;-147.22;79.28
74329;BME280;62749;51.982;5.916;2024-01-25T06:38:46;78953.06;;;-147.22;79.31
74329;BME280;62749;51.982;5.916;2024-01-25T06:41:16;78955.09;;;-147.22;79.46
74329;BME280;62749;51.982;5.916;2024-01-25T06:43:45;78940.97;;;-147.22;79.59
74329;BME280;62749;51.982;5.916;2024-01-25T06:46:18;78936.94;;;-147.22;79.46
74329;BME280;62749;51.982;5.916;2024-01-25T06:48:47;78940.97;;;-147.22;79.23
74329;BME280;62749;51.982;5.916;2024-01-25T06:51:16;78945.00;;;-147.22;79.14
74329;BME280;62749;51.982;5.916;2024-01-25T06:53:46;78936.94;;;-147.22;79.12
74329;BME280;62749;51.982;5.916;2024-01-25T06:56:15;78955.09;;;-147.22;79.08
74329;BME280;62749;51.982;5.916;2024-01-25T06:58:45;78965.16;;;-147.22;79.45
74329;BME280;62749;51.982;5.916;2024-01-25T07:01:22;78959.13;;;-147.22;79.56
74329;BME280;62749;51.982;5.916;2024-01-25T07:03:54;78955.09;;;-147.22;80.05
74329;BME280;62749;51.982;5.916;2024-01-25T07:06:23;78953.06;;;-147.22;79.87
74329;BME280;62749;51.982;5.916;2024-01-25T07:08:53;78945.00;;;-147.22;79.55
74329;BME280;62749;51.982;5.916;2024-01-25T07:11:22;78938.94;;;-147.22;79.32
74329;BME280;62749;51.982;5.916;2024-01-25T07:13:52;78938.94;;;-147.22;79.51
74329;BME280;62749;51.982;5.916;2024-01-25T07:16:24;78930.88;;;-147.22;79.61
74329;BME280;62749;51.982;5.916;2024-01-25T07:18:54;78940.97;;;-147.22;79.61
74329;BME280;62749;51.982;5.916;2024-01-25T07:21:23;78942.97;;;-147.22;80.18
74329;BME280;62749;51.982;5.916;2024-01-25T07:23:53;78951.06;;;-147.22;80.28
74329;BME280;62749;51.982;5.916;2024-01-25T07:26:22;78940.97;;;-147.22;80.22
74329;BME280;62749;51.982;5.916;2024-01-25T07:28:52;78942.97;;;-147.22;79.87
74329;BME280;62749;51.982;5.916;2024-01-25T07:31:27;78949.03;;;-147.22;80.21
74329;BME280;62749;51.982;5.916;2024-01-25T07:33:57;78953.06;;;-147.22;80.29
74329;BME280;62749;51.982;5.916;2024-01-25T07:36:26;78938.94;;;-147.22;80.32
74329;BME280;62749;51.982;5.916;2024-01-25T07:38:56;78945.00;;;-147.22;80.03
74329;BME280;62749;51.982;5.916;2024-01-25T07:41:26;78953.06;;;-147.22;79.77
74329;BME280;62749;51.982;5.916;2024-01-25T07:43:55;78959.13;;;-147.22;79.89
74329;BME280;62749;51.982;5.916;2024-01-25T07:46:27;78963.16;;;-147.22;80.07
74329;BME280;62749;51.982;5.916;2024-01-25T07:48:57;78953.06;;;-147.22;79.91
74329;BME280;62749;51.982;5.916;2024-01-25T07:51:26;78955.09;;;-147.22;79.86
74329;BME280;62749;51.982;5.916;2024-01-25T07:53:56;78951.06;;;-147.22;79.66
74329;BME280;62749;51.982;5.916;2024-01-25T07:56:26;78953.06;;;-147.22;79.68
74329;BME280;62749;51.982;5.916;2024-01-25T07:58:56;78963.16;;;-147.22;80.03
74329;BME280;62749;51.982;5.916;2024-01-25T08:01:29;78959.13;;;-147.22;80.15
74329;BME280;62749;51.982;5.916;2024-01-25T08:03:58;78969.19;;;-147.22;80.26
74329;BME280;62749;51.982;5.916;2024-01-25T08:06:29;78971.22;;;-147.22;80.47
74329;BME280;62749;51.982;5.916;2024-01-25T08:08:59;78961.13;;;-147.22;80.58
74329;BME280;62749;51.982;5.916;2024-01-25T08:11:29;78953.06;;;-147.22;80.28
74329;BME280;62749;51.982;5.916;2024-01-25T08:13:59;78938.94;;;-147.22;80.17
74329;BME280;62749;51.982;5.916;2024-01-25T08:16:32;78945.00;;;-147.22;80.00
74329;BME280;62749;51.982;5.916;2024-01-25T08:19:02;78936.94;;;-147.22;80.17
74329;BME280;62749;51.982;5.916;2024-01-25T08:21:31;78928.88;;;-147.22;80.34
74329;BME280;62749;51.982;5.916;2024-01-25T08:24:02;78930.88;;;-147.22;80.28
74329;BME280;62749;51.982;5.916;2024-01-25T08:26:32;78924.81;;;-147.22;80.11
74329;BME280;62749;51.982;5.916;2024-01-25T08:29:01;78932.91;;;-147.22;80.15
74329;BME280;62749;51.982;5.916;2024-01-25T08:31:33;78936.94;;;-147.22;80.36
74329;BME280;62749;51.982;5.916;2024-01-25T08:34:03;78934.91;;;-147.22;79.98
74329;BME280;62749;51.982;5.916;2024-01-25T08:36:43;78934.91;;;-147.22;79.48
74329;BME280;62749;51.982;5.916;2024-01-25T08:39:12;78932.91;;;-147.22;79.66
74329;BME280;62749;51.982;5.916;2024-01-25T08:41:42;78932.91;;;-147.22;79.70
74329;BME280;62749;51.982;5.916;2024-01-25T08:44:12;78924.81;;;-147.22;79.61
74329;BME280;62749;51.982;5.916;2024-01-25T08:46:44;78912.72;;;-147.22;79.44
74329;BME280;62749;51.982;5.916;2024-01-25T08:49:13;78910.72;;;-147.22;78.68
74329;BME280;62749;51.982;5.916;2024-01-25T08:52:06;78916.75;;;-147.22;78.54
74329;BME280;62749;51.982;5.916;2024-01-25T08:54:36;78936.94;;;-147.22;79.30
74329;BME280;62749;51.982;5.916;2024-01-25T08:57:06;78926.84;;;-147.22;79.48
74329;BME280;62749;51.982;5.916;2024-01-25T08:59:35;78924.81;;;-147.22;79.50
74329;BME280;62749;51.982;5.916;2024-01-25T09:02:08;78928.88;;;-147.22;79.32
74329;BME280;62749;51.982;5.916;2024-01-25T09:04:37;78920.78;;;-147.22;79.20
74329;BME280;62749;51.982;5.916;2024-01-25T09:07:09;78914.75;;;-147.22;79.18
74329;BME280;62749;51.982;5.916;2024-01-25T09:09:38;78910.72;;;-147.22;79.06
74329;BME280;62749;51.982;5.916;2024-01-25T09:12:08;78884.50;;;-147.22;78.77
74329;BME280;62749;51.982;5.916;2024-01-25T09:14:39;78890.53;;;-147.22;78.49
74329;BME280;62749;51.982;5.916;2024-01-25T09:17:11;78890.53;;;-147.22;78.44
74329;BME280;62749;51.982;5.916;2024-01-25T09:19:42;78886.50;;;-147.22;78.07
74329;BME280;62749;51.982;5.916;2024-01-25T09:22:11;78896.59;;;-147.22;78.13
74329;BME280;62749;51.982;5.916;2024-01-25T09:24:43;78908.69;;;-147.22;78.45
74329;BME280;62749;51.982;5.916;2024-01-25T09:27:13;78900.63;;;-147.22;79.06
74329;BME280;62749;51.982;5.916;2024-01-25T09:29:42;78874.41;;;-147.22;79.15
74329;BME280;62749;51.982;5.916;2024-01-25T09:32:14;78880.44;;;-147.22;79.15
74329;BME280;62749;51.982;5.916;2024-01-25T09:34:44;78884.50;;;-147.22;79.01
74329;BME280;62749;51.982;5.916;2024-01-25T09:37:13;78872.38;;;-147.22;78.55
74329;BME280;62749;51.982;5.916;2024-01-25T09:39:43;78882.47;;;-147.22;78.39
74329;BME280;62749;51.982;5.916;2024-01-25T09:42:13;78888.53;;;-147.22;78.40
74329;BME280;62749;51.982;5.916;2024-01-25T09:44:43;78888.53;;;-147.22;78.40
74329;BME280;62749;51.982;5.916;2024-01-25T09:47:15;78882.47;;;-147.22;78.66
74329;BME280;62749;51.982;5.916;2024-01-25T09:49:50;78888.53;;;-147.22;78.40
74329;BME280;62749;51.982;5.916;2024-01-25T09:52:22;78884.50;;;-147.22;78.54
74329;BME280;62749;51.982;5.916;2024-01-25T09:54:54;78872.38;;;-147.22;78.47
74329;BME280;62749;51.982;5.916;2024-01-25T09:57:25;78876.41;;;-147.22;78.63
74329;BME280;62749;51.982;5.916;2024-01-25T09:59:56;78874.41;;;-147.22;78.84
74329;BME280;62749;51.982;5.916;2024-01-25T10:02:28;78856.25;;;-147.22;79.20
74329;BME280;62749;51.982;5.916;2024-01-25T10:04:59;78832.03;;;-147.22;79.11
74329;BME280;62749;51.982;5.916;2024-01-25T10:07:42;78819.94;;;-147.22;78.65
74329;BME280;62749;51.982;5.916;2024-01-25T10:10:12;78787.66;;;-147.22;78.09
74329;BME280;62749;51.982;5.916;2024-01-25T10:12:43;78795.75;;;-147.22;77.54
74329;BME280;62749;51.982;5.916;2024-01-25T10:15:13;78819.94;;;-147.22;77.43
74329;BME280;62749;51.982;5.916;2024-01-25T10:17:45;78817.94;;;-147.22;77.78
74329;BME280;62749;51.982;5.916;2024-01-25T10:20:15;78813.91;;;-147.22;78.18
74329;BME280;62749;51.982;5.916;2024-01-25T10:22:47;78793.72;;;-147.22;78.25
74329;BME280;62749;51.982;5.916;2024-01-25T10:25:16;78775.56;;;-147.22;78.06
74329;BME280;62749;51.982;5.916;2024-01-25T10:27:47;78759.44;;;-147.22;78.18
74329;BME280;62749;51.982;5.916;2024-01-25T10:30:16;78745.31;;;-147.22;78.08
74329;BME280;62749;51.982;5.916;2024-01-25T10:32:50;78739.25;;;-147.22;77.31
74329;BME280;62749;51.982;5.916;2024-01-25T10:35:21;78743.31;;;-147.22;77.71
74329;BME280;62749;51.982;5.916;2024-01-25T10:37:51;78721.13;;;-147.22;77.18
74329;BME280;62749;51.982;5.916;2024-01-25T10:40:21;78723.13;;;-147.22;76.96
74329;BME280;62749;51.982;5.916;2024-01-25T10:42:51;78717.09;;;-147.22;77.22
74329;BME280;62749;51.982;5.916;2024-01-25T10:45:20;78709.00;;;-147.22;76.64
74329;BME280;62749;51.982;5.916;2024-01-25T10:47:53;78711.03;;;-147.22;76.37
74329;BME280;62749;51.982;5.916;2024-01-25T10:50:22;78696.91;;;-147.22;76.23
74329;BME280;62749;51.982;5.916;2024-01-25T10:52:52;78698.94;;;-147.22;75.79
74329;BME280;62749;51.982;5.916;2024-01-25T10:55:22;78682.78;;;-147.22;76.57
74329;BME280;62749;51.982;5.916;2024-01-25T10:57:52;78672.72;;;-147.22;76.00
74329;BME280;62749;51.982;5.916;2024-01-25T11:00:22;78666.66;;;-147.22;76.48
74329;BME280;62749;51.982;5.916;2024-01-25T11:02:55;78674.72;;;-147.22;77.33
74329;BME280;62749;51.982;5.916;2024-01-25T11:05:25;78646.50;;;-147.22;76.85
74329;BME280;62749;51.982;5.916;2024-01-25T11:07:55;78644.47;;;-147.22;76.88
74329;BME280;62749;51.982;5.916;2024-01-25T11:10:52;78630.34;;;-147.22;76.57
74329;BME280;62749;51.982;5.916;2024-01-25T11:13:26;78606.16;;;-147.22;75.83
74329;BME280;62749;51.982;5.916;2024-01-25T11:15:56;78585.97;;;-147.22;75.64
74329;BME280;62749;51.982;5.916;2024-01-25T11:18:28;78577.91;;;-147.22;74.47
74329;BME280;62749;51.982;5.916;2024-01-25T11:21:05;78567.84;;;-147.22;74.51
74329;BME280;62749;51.982;5.916;2024-01-25T11:23:35;78557.75;;;-147.22;74.43
74329;BME280;62749;51.982;5.916;2024-01-25T11:26:08;78569.84;;;-147.22;74.54
74329;BME280;62749;51.982;5.916;2024-01-25T11:28:38;78549.69;;;-147.22;74.55
74329;BME280;62749;51.982;5.916;2024-01-25T11:31:07;78539.59;;;-147.22;74.47
74329;BME280;62749;51.982;5.916;2024-01-25T11:33:40;78525.47;;;-147.22;74.07
74329;BME280;62749;51.982;5.916;2024-01-25T11:36:09;78513.38;;;-147.22;73.98
74329;BME280;62749;51.982;5.916;2024-01-25T11:38:39;78497.25;;;-147.22;73.59
74329;BME280;62749;51.982;5.916;2024-01-25T11:41:09;78517.41;;;-147.22;73.55
74329;BME280;62749;51.982;5.916;2024-01-25T11:43:40;78525.47;;;-147.22;73.31
74329;BME280;62749;51.982;5.916;2024-01-25T11:46:10;78509.34;;;-147.22;73.34
74329;BME280;62749;51.982;5.916;2024-01-25T11:48:43;78485.13;;;-147.22;72.82
74329;BME280;62749;51.982;5.916;2024-01-25T11:51:13;78483.13;;;-147.22;73.26
74329;BME280;62749;51.982;5.916;2024-01-25T11:53:42;78464.97;;;-147.22;72.90
74329;BME280;62749;51.982;5.916;2024-01-25T11:56:17;78462.97;;;-147.22;72.35
74329;BME280;62749;51.982;5.916;2024-01-25T11:58:49;78460.94;;;-147.22;71.76
74329;BME280;62749;51.982;5.916;2024-01-25T12:01:20;78471.03;;;-147.22;71.72
74329;BME280;62749;51.982;5.916;2024-01-25T12:03:53;78471.03;;;-147.22;71.90
74329;BME280;62749;51.982;5.916;2024-01-25T12:06:23;78473.03;;;-147.22;72.35
74329;BME280;62749;51.982;5.916;2024-01-25T12:09:16;78467.00;;;-147.22;72.53
74329;BME280;62749;51.982;5.916;2024-01-25T12:11:49;78454.88;;;-147.22;72.37
74329;BME280;62749;51.982;5.916;2024-01-25T12:14:20;78432.72;;;-147.22;71.99
74329;BME280;62749;51.982;5.916;2024-01-25T12:16:49;78424.63;;;-147.22;71.96
74329;BME280;62749;51.982;5.916;2024-01-25T12:19:21;78420.59;;;-147.22;71.66
74329;BME280;62749;51.982;5.916;2024-01-25T12:21:51;78424.63;;;-147.22;71.29
74329;BME280;62749;51.982;5.916;2024-01-25T12:24:20;78412.53;;;-147.22;71.52
74329;BME280;62749;51.982;5.916;2024-01-25T12:26:50;78406.50;;;-147.22;71.39
74329;BME280;62749;51.982;5.916;2024-01-25T12:29:19;78404.47;;;-147.22;71.79
74329;BME280;62749;51.982;5.916;2024-01-25T12:31:49;78404.47;;;-147.22;71.68
74329;BME280;62749;51.982;5.916;2024-01-25T12:34:21;78404.47;;;-147.22;71.69
74329;BME280;62749;51.982;5.916;2024-01-25T12:36:51;78392.38;;;-147.22;70.89
74329;BME280;62749;51.982;5.916;2024-01-25T12:39:21;78400.44;;;-147.22;70.71
74329;BME280;62749;51.982;5.916;2024-01-25T12:41:50;78404.47;;;-147.22;71.32
74329;BME280;62749;51.982;5.916;2024-01-25T12:44:20;78392.38;;;-147.22;71.56
74329;BME280;62749;51.982;5.916;2024-01-25T12:46:49;78374.22;;;-147.22;70.68
74329;BME280;62749;51.982;5.916;2024-01-25T12:49:21;78384.31;;;-147.22;70.93
74329;BME280;62749;51.982;5.916;2024-01-25T12:51:51;78362.13;;;-147.22;70.36
74329;BME280;62749;51.982;5.916;2024-01-25T12:54:20;78364.13;;;-147.22;70.51
74329;BME280;62749;51.982;5.916;2024-01-25T12:56:50;78348.00;;;-147.22;69.72